Time;durP1;ratioP1;P1;durP2;ratioP2;P2;SDS_P1;SDS_P2;PMS_P1;PMS_P2;Temp;Humidity;BMP_temperature;BMP_pressure;BME280_temperature;BME280_humidity;BME280_pressure;Samples;Min_cycle;Max_cycle;Signal;HPM_P1;HPM_P2
2023/10/21 00:01:11;;;;;;;3.90;2.70;;;;;;;;;;2609771;39;20861;-77
2023/10/21 00:03:37;;;;;;;14.97;3.03;;;;;;;;;;2610849;54;20403;-77
2023/10/21 00:06:03;;;;;;;6.07;2.80;;;;;;;;;;2611169;47;20442;-78
2023/10/21 00:08:29;;;;;;;3.83;2.00;;;;;;;;;;2610324;54;20404;-77
2023/10/21 00:11:02;;;;;;;6.20;2.67;;;;;;;;;;2608972;54;21328;-77
2023/10/21 00:13:29;;;;;;;7.33;3.47;;;;;;;;;;2611466;39;20614;-76
2023/10/21 00:15:55;;;;;;;2.97;2.13;;;;;;;;;;2609679;47;20411;-77
2023/10/21 00:18:21;;;;;;;2.57;2.07;;;;;;;;;;2610909;54;21313;-77
2023/10/21 00:20:47;;;;;;;4.37;2.00;;;;;;;;;;2612219;54;20395;-78
2023/10/21 00:23:13;;;;;;;3.50;2.23;;;;;;;;;;2611915;54;20423;-78
2023/10/21 00:25:39;;;;;;;3.43;3.07;;;;;;;;;;2609991;47;20415;-77
2023/10/21 00:28:05;;;;;;;4.73;1.93;;;;;;;;;;2609427;39;20821;-77
2023/10/21 00:30:31;;;;;;;4.00;2.10;;;;;;;;;;2610173;54;20511;-78
2023/10/21 00:32:58;;;;;;;4.47;2.70;;;;;;;;;;2610037;54;20427;-77
2023/10/21 00:35:24;;;;;;;4.00;2.50;;;;;;;;;;2610067;47;21009;-78
2023/10/21 00:37:50;;;;;;;4.40;2.40;;;;;;;;;;2610221;54;20407;-78
2023/10/21 00:40:16;;;;;;;2.97;2.00;;;;;;;;;;2610273;54;20426;-79
2023/10/21 00:42:42;;;;;;;3.23;2.33;;;;;;;;;;2607779;46;20442;-78
2023/10/21 00:45:09;;;;;;;4.43;1.67;;;;;;;;;;2608775;54;20408;-78
2023/10/21 00:47:36;;;;;;;2.80;1.60;;;;;;;;;;2608485;54;20427;-77
2023/10/21 00:50:03;;;;;;;4.87;2.30;;;;;;;;;;2609589;54;20403;-77
2023/10/21 00:52:29;;;;;;;4.30;1.90;;;;;;;;;;2610042;54;20431;-77
2023/10/21 00:54:56;;;;;;;3.87;1.77;;;;;;;;;;2612653;39;20883;-77
2023/10/21 00:57:22;;;;;;;2.97;1.47;;;;;;;;;;2611902;47;20436;-77
2023/10/21 00:59:49;;;;;;;8.23;2.50;;;;;;;;;;2611110;39;21148;-78
2023/10/21 01:02:15;;;;;;;3.53;1.53;;;;;;;;;;2610324;54;20450;-78
2023/10/21 01:04:42;;;;;;;6.10;2.43;;;;;;;;;;2610564;54;21229;-77
2023/10/21 01:07:15;;;;;;;2.33;1.43;;;;;;;;;;2608924;54;20967;-77
2023/10/21 01:09:41;;;;;;;2.20;1.50;;;;;;;;;;2608576;47;20412;-77
2023/10/21 01:12:07;;;;;;;6.13;2.00;;;;;;;;;;2609374;54;21024;-77
2023/10/21 01:14:33;;;;;;;3.10;1.83;;;;;;;;;;2608629;39;20917;-77
2023/10/21 01:16:59;;;;;;;5.70;1.97;;;;;;;;;;2607795;54;20396;-75
2023/10/21 01:19:25;;;;;;;4.07;1.67;;;;;;;;;;2609573;54;20466;-77
2023/10/21 01:21:51;;;;;;;3.50;2.00;;;;;;;;;;2608434;54;20415;-76
2023/10/21 01:24:17;;;;;;;2.50;1.50;;;;;;;;;;2609413;39;20892;-76
2023/10/21 01:26:44;;;;;;;1.90;1.20;;;;;;;;;;2608564;54;20423;-78
2023/10/21 01:29:10;;;;;;;3.13;1.80;;;;;;;;;;2608303;54;20471;-78
2023/10/21 01:31:36;;;;;;;4.87;3.03;;;;;;;;;;2609089;54;20419;-78
2023/10/21 01:34:02;;;;;;;2.67;1.73;;;;;;;;;;2609253;54;20415;-78
2023/10/21 01:36:28;;;;;;;2.67;1.70;;;;;;;;;;2609145;54;20510;-77
2023/10/21 01:38:54;;;;;;;2.60;1.47;;;;;;;;;;2608989;54;20411;-77
2023/10/21 01:41:20;;;;;;;3.67;1.90;;;;;;;;;;2608484;47;20962;-78
2023/10/21 01:43:46;;;;;;;2.10;1.60;;;;;;;;;;2609061;54;20445;-79
2023/10/21 01:46:12;;;;;;;2.40;1.60;;;;;;;;;;2608485;39;21179;-79
2023/10/21 01:48:40;;;;;;;2.43;1.47;;;;;;;;;;2609028;54;20404;-78
2023/10/21 01:51:06;;;;;;;6.37;1.33;;;;;;;;;;2608849;54;20410;-77
2023/10/21 01:53:32;;;;;;;2.77;1.20;;;;;;;;;;2608940;54;20426;-78
2023/10/21 01:56:01;;;;;;;4.33;1.53;;;;;;;;;;2609360;39;21030;-78
2023/10/21 01:58:29;;;;;;;2.90;1.40;;;;;;;;;;2609082;54;20396;-77
2023/10/21 02:00:55;;;;;;;5.40;1.27;;;;;;;;;;2609495;47;20526;-77
2023/10/21 02:03:21;;;;;;;2.30;1.50;;;;;;;;;;2610531;54;20884;-77
2023/10/21 02:05:47;;;;;;;3.43;1.83;;;;;;;;;;2612059;54;20392;-77
2023/10/21 02:08:13;;;;;;;3.50;1.63;;;;;;;;;;2609835;54;21040;-77
2023/10/21 02:10:40;;;;;;;4.33;2.20;;;;;;;;;;2610051;54;20583;-76
2023/10/21 02:13:07;;;;;;;2.33;1.50;;;;;;;;;;2610227;39;21146;-76
2023/10/21 02:15:36;;;;;;;3.57;1.90;;;;;;;;;;2609773;54;20411;-76
2023/10/21 02:18:02;;;;;;;3.40;1.60;;;;;;;;;;2609320;47;20431;-77
2023/10/21 02:20:28;;;;;;;2.20;1.70;;;;;;;;;;2609902;54;20427;-75
2023/10/21 02:22:54;;;;;;;2.13;1.43;;;;;;;;;;2609972;54;21583;-76
2023/10/21 02:25:20;;;;;;;3.00;1.73;;;;;;;;;;2610468;54;20415;-77
2023/10/21 02:27:47;;;;;;;4.70;2.07;;;;;;;;;;2610422;54;20738;-77
2023/10/21 02:30:16;;;;;;;3.97;1.87;;;;;;;;;;2610650;54;21032;-78
2023/10/21 02:32:46;;;;;;;2.93;1.97;;;;;;;;;;2610491;39;21347;-78
2023/10/21 02:35:12;;;;;;;3.93;2.03;;;;;;;;;;2609417;46;20465;-76
2023/10/21 02:37:39;;;;;;;3.23;1.80;;;;;;;;;;2610366;54;20424;-77
2023/10/21 02:40:05;;;;;;;3.20;2.23;;;;;;;;;;2609932;54;20474;-76
2023/10/21 02:42:31;;;;;;;4.80;2.30;;;;;;;;;;2610063;54;20415;-77
2023/10/21 02:44:57;;;;;;;3.90;2.10;;;;;;;;;;2610308;54;20515;-76
2023/10/21 02:47:23;;;;;;;3.33;1.93;;;;;;;;;;2610332;54;20953;-75
2023/10/21 02:49:49;;;;;;;3.07;2.00;;;;;;;;;;2610558;54;20387;-74
2023/10/21 02:52:15;;;;;;;2.97;2.13;;;;;;;;;;2609946;54;20510;-75
2023/10/21 02:54:41;;;;;;;10.37;2.73;;;;;;;;;;2610259;54;20458;-74
2023/10/21 02:57:07;;;;;;;4.30;2.97;;;;;;;;;;2610695;39;20796;-74
2023/10/21 02:59:35;;;;;;;2.30;1.87;;;;;;;;;;2610770;54;20502;-75
2023/10/21 03:02:01;;;;;;;3.60;2.13;;;;;;;;;;2610825;54;20397;-75
2023/10/21 03:04:27;;;;;;;2.93;2.13;;;;;;;;;;2609548;54;20427;-77
2023/10/21 03:06:53;;;;;;;5.90;2.50;;;;;;;;;;2610947;54;20404;-75
2023/10/21 03:09:19;;;;;;;3.33;2.40;;;;;;;;;;2612429;39;20828;-74
2023/10/21 03:11:45;;;;;;;3.00;1.93;;;;;;;;;;2610875;54;20428;-74
2023/10/21 03:14:11;;;;;;;3.33;1.90;;;;;;;;;;2610317;54;20403;-74
2023/10/21 03:16:38;;;;;;;3.90;2.40;;;;;;;;;;2609206;47;20411;-74
2023/10/21 03:19:04;;;;;;;3.17;2.20;;;;;;;;;;2609844;54;20414;-73
2023/10/21 03:21:30;;;;;;;3.20;2.20;;;;;;;;;;2609530;54;20415;-74
2023/10/21 03:23:56;;;;;;;4.00;2.00;;;;;;;;;;2610668;39;20838;-74
2023/10/21 03:26:22;;;;;;;5.03;3.03;;;;;;;;;;2610248;54;20398;-74
2023/10/21 03:28:50;;;;;;;3.13;2.20;;;;;;;;;;2609641;54;20988;-73
2023/10/21 03:31:16;;;;;;;2.90;1.70;;;;;;;;;;2609868;54;20408;-73
2023/10/21 03:33:44;;;;;;;4.53;3.10;;;;;;;;;;2609481;47;20446;-73
2023/10/21 03:36:10;;;;;;;4.20;2.30;;;;;;;;;;2610094;54;20483;-76
2023/10/21 03:38:37;;;;;;;5.07;1.93;;;;;;;;;;2610226;54;20420;-75
2023/10/21 03:41:05;;;;;;;3.80;2.33;;;;;;;;;;2609802;54;20434;-75
2023/10/21 03:43:31;;;;;;;6.10;1.83;;;;;;;;;;2609412;47;20519;-76
2023/10/21 03:46:01;;;;;;;2.37;1.93;;;;;;;;;;2610165;54;20431;-75
2023/10/21 03:48:27;;;;;;;2.50;1.93;;;;;;;;;;2609753;54;20450;-76
2023/10/21 03:50:56;;;;;;;2.90;2.20;;;;;;;;;;2610922;54;20403;-76
2023/10/21 03:53:22;;;;;;;2.90;2.07;;;;;;;;;;2611406;39;20803;-75
2023/10/21 03:55:48;;;;;;;4.20;2.20;;;;;;;;;;2609354;54;20439;-76
2023/10/21 03:58:14;;;;;;;3.83;2.40;;;;;;;;;;2609839;54;20430;-75
2023/10/21 04:00:40;;;;;;;4.37;2.33;;;;;;;;;;2610136;54;20391;-75
2023/10/21 04:03:07;;;;;;;3.50;2.33;;;;;;;;;;2610594;54;20423;-76
2023/10/21 04:05:34;;;;;;;2.50;1.90;;;;;;;;;;2609296;54;20404;-75
2023/10/21 04:08:04;;;;;;;3.77;2.70;;;;;;;;;;2610367;54;20404;-75
2023/10/21 04:10:30;;;;;;;4.33;2.40;;;;;;;;;;2609605;54;20411;-75
2023/10/21 04:12:56;;;;;;;4.13;2.47;;;;;;;;;;2609852;54;20407;-75
2023/10/21 04:15:22;;;;;;;3.27;2.03;;;;;;;;;;2610227;54;20516;-75
2023/10/21 04:17:48;;;;;;;3.47;2.43;;;;;;;;;;2609675;54;20399;-75
2023/10/21 04:20:16;;;;;;;3.60;2.60;;;;;;;;;;2610006;47;20430;-75
2023/10/21 04:22:42;;;;;;;5.07;2.70;;;;;;;;;;2609578;54;20419;-75
2023/10/21 04:25:08;;;;;;;6.10;2.53;;;;;;;;;;2610048;54;20973;-76
2023/10/21 04:27:34;;;;;;;7.23;3.20;;;;;;;;;;2609682;54;20424;-75
2023/10/21 04:30:00;;;;;;;4.10;2.80;;;;;;;;;;2609930;54;20410;-75
2023/10/21 04:32:26;;;;;;;4.50;3.20;;;;;;;;;;2611012;54;20977;-75
2023/10/21 04:34:52;;;;;;;7.50;2.90;;;;;;;;;;2611618;54;20419;-76
2023/10/21 04:37:18;;;;;;;5.10;3.03;;;;;;;;;;2610826;54;20490;-75
2023/10/21 04:39:44;;;;;;;3.87;2.77;;;;;;;;;;2609662;47;20423;-75
2023/10/21 04:42:10;;;;;;;5.57;2.70;;;;;;;;;;2610352;54;20403;-75
2023/10/21 04:44:37;;;;;;;7.13;3.27;;;;;;;;;;2610140;54;21073;-76
2023/10/21 04:47:04;;;;;;;3.67;3.30;;;;;;;;;;2611454;39;20862;-76
2023/10/21 04:49:30;;;;;;;5.33;2.90;;;;;;;;;;2610789;54;20526;-75
2023/10/21 04:51:57;;;;;;;5.00;3.50;;;;;;;;;;2611220;39;21116;-76
2023/10/21 04:54:23;;;;;;;4.00;3.40;;;;;;;;;;2610870;54;20960;-76
2023/10/21 04:56:49;;;;;;;8.03;3.63;;;;;;;;;;2610385;54;20421;-74
2023/10/21 04:59:15;;;;;;;6.30;4.30;;;;;;;;;;2610677;54;20423;-74
2023/10/21 05:01:41;;;;;;;6.67;4.70;;;;;;;;;;2609744;47;20415;-75
2023/10/21 05:04:07;;;;;;;6.23;4.57;;;;;;;;;;2611236;54;20402;-75
2023/10/21 05:06:33;;;;;;;7.50;4.10;;;;;;;;;;2611575;47;20558;-74
2023/10/21 05:08:59;;;;;;;5.70;3.90;;;;;;;;;;2611737;54;20410;-74
2023/10/21 05:11:25;;;;;;;7.43;3.80;;;;;;;;;;2612565;54;20438;-73
2023/10/21 05:13:52;;;;;;;10.47;3.37;;;;;;;;;;2611124;54;20399;-77
2023/10/21 05:16:18;;;;;;;5.13;2.53;;;;;;;;;;2610479;39;20851;-74
2023/10/21 05:18:44;;;;;;;6.20;4.33;;;;;;;;;;2610481;54;20423;-74
2023/10/21 05:21:10;;;;;;;5.23;3.43;;;;;;;;;;2609442;54;20409;-74
2023/10/21 05:23:37;;;;;;;7.07;5.40;;;;;;;;;;2610663;54;20387;-74
2023/10/21 05:26:03;;;;;;;6.40;3.90;;;;;;;;;;2610764;54;21009;-74
2023/10/21 05:28:29;;;;;;;5.60;4.30;;;;;;;;;;2610132;54;20491;-74
2023/10/21 05:30:55;;;;;;;5.67;4.33;;;;;;;;;;2610478;54;20408;-74
2023/10/21 05:33:21;;;;;;;6.07;3.43;;;;;;;;;;2609547;54;20438;-74
2023/10/21 05:35:47;;;;;;;5.43;4.10;;;;;;;;;;2610838;54;20446;-74
2023/10/21 05:38:13;;;;;;;5.63;3.13;;;;;;;;;;2610697;54;20414;-74
2023/10/21 05:40:41;;;;;;;5.20;3.63;;;;;;;;;;2612326;39;20923;-74
2023/10/21 05:43:07;;;;;;;8.20;4.17;;;;;;;;;;2611518;54;20442;-74
2023/10/21 05:45:34;;;;;;;9.03;5.03;;;;;;;;;;2612297;54;20407;-74
2023/10/21 05:48:00;;;;;;;5.10;4.20;;;;;;;;;;2610580;39;20810;-74
2023/10/21 05:50:26;;;;;;;8.37;4.50;;;;;;;;;;2610471;54;20436;-73
2023/10/21 05:52:52;;;;;;;5.93;3.70;;;;;;;;;;2610594;39;20804;-74
2023/10/21 05:55:19;;;;;;;7.07;4.30;;;;;;;;;;2609687;47;20435;-73
2023/10/21 05:57:45;;;;;;;5.10;3.80;;;;;;;;;;2609722;47;20415;-73
2023/10/21 06:00:12;;;;;;;8.57;3.97;;;;;;;;;;2609159;54;20496;-74
2023/10/21 06:02:38;;;;;;;10.20;4.63;;;;;;;;;;2609744;47;20427;-73
2023/10/21 06:05:07;;;;;;;11.37;5.20;;;;;;;;;;2611191;54;20402;-73
2023/10/21 06:07:34;;;;;;;9.53;4.40;;;;;;;;;;2610396;54;20973;-75
2023/10/21 06:10:00;;;;;;;8.97;4.83;;;;;;;;;;2610426;54;20418;-75
2023/10/21 06:12:26;;;;;;;12.90;6.37;;;;;;;;;;2610233;54;20435;-75
2023/10/21 06:14:53;;;;;;;7.20;4.50;;;;;;;;;;2610917;54;20412;-78
2023/10/21 06:17:20;;;;;;;7.13;4.30;;;;;;;;;;2612038;54;20404;-76
2023/10/21 06:19:46;;;;;;;9.50;4.70;;;;;;;;;;2610059;54;20422;-74
2023/10/21 06:22:13;;;;;;;10.10;3.90;;;;;;;;;;2610166;54;20424;-75
2023/10/21 06:24:39;;;;;;;14.43;5.97;;;;;;;;;;2609747;54;20469;-75
2023/10/21 06:27:07;;;;;;;7.10;4.37;;;;;;;;;;2609876;47;20522;-74
2023/10/21 06:29:34;;;;;;;10.90;5.20;;;;;;;;;;2610895;54;20411;-74
2023/10/21 06:32:01;;;;;;;10.03;5.03;;;;;;;;;;2610407;54;20419;-75
2023/10/21 06:34:27;;;;;;;9.03;4.97;;;;;;;;;;2610331;54;20434;-75
2023/10/21 06:36:53;;;;;;;7.77;4.50;;;;;;;;;;2610037;54;20562;-74
2023/10/21 06:39:20;;;;;;;7.10;4.93;;;;;;;;;;2611265;54;20436;-74
2023/10/21 06:41:46;;;;;;;11.23;5.77;;;;;;;;;;2611268;54;20462;-76
2023/10/21 06:44:16;;;;;;;9.57;4.30;;;;;;;;;;2612661;54;20981;-75
2023/10/21 06:46:42;;;;;;;8.80;3.90;;;;;;;;;;2611401;31;20889;-75
2023/10/21 06:49:09;;;;;;;5.10;3.93;;;;;;;;;;2611960;54;20450;-75
2023/10/21 06:51:36;;;;;;;6.70;4.00;;;;;;;;;;2611538;54;20434;-75
2023/10/21 06:54:02;;;;;;;6.13;3.93;;;;;;;;;;2609481;54;20415;-77
2023/10/21 06:56:28;;;;;;;4.03;3.40;;;;;;;;;;2610518;54;20407;-76
2023/10/21 06:58:54;;;;;;;3.40;2.70;;;;;;;;;;2610283;54;21208;-75
2023/10/21 07:01:20;;;;;;;7.87;3.07;;;;;;;;;;2610132;54;20430;-76
2023/10/21 07:03:46;;;;;;;5.73;3.53;;;;;;;;;;2609759;39;20865;-76
2023/10/21 07:06:12;;;;;;;6.33;3.40;;;;;;;;;;2609483;54;20430;-76
2023/10/21 07:08:38;;;;;;;4.70;2.70;;;;;;;;;;2610161;47;20431;-76
2023/10/21 07:11:04;;;;;;;4.07;2.50;;;;;;;;;;2610122;46;20438;-77
2023/10/21 07:13:30;;;;;;;4.10;3.07;;;;;;;;;;2612153;54;20427;-78
2023/10/21 07:15:56;;;;;;;4.30;2.93;;;;;;;;;;2611299;47;20432;-75
2023/10/21 07:18:22;;;;;;;4.83;2.43;;;;;;;;;;2611920;54;20495;-75
2023/10/21 07:20:56;;;;;;;4.87;1.97;;;;;;;;;;2610964;54;20962;-75
2023/10/21 07:23:23;;;;;;;3.93;2.13;;;;;;;;;;2611830;54;20403;-75
2023/10/21 07:25:49;;;;;;;3.07;1.93;;;;;;;;;;2609004;54;20423;-75
2023/10/21 07:28:15;;;;;;;2.90;2.00;;;;;;;;;;2611978;54;20420;-75
2023/10/21 07:30:41;;;;;;;4.00;2.20;;;;;;;;;;2611284;54;20419;-76
2023/10/21 07:33:07;;;;;;;6.00;2.70;;;;;;;;;;2611441;54;20400;-75
2023/10/21 07:35:33;;;;;;;5.07;1.87;;;;;;;;;;2611459;46;20441;-75
2023/10/21 07:37:59;;;;;;;3.17;1.70;;;;;;;;;;2611817;54;20510;-74
2023/10/21 07:40:26;;;;;;;2.50;1.43;;;;;;;;;;2610827;39;20503;-75
2023/10/21 07:42:54;;;;;;;3.57;2.50;;;;;;;;;;2611485;54;20922;-77
2023/10/21 07:45:21;;;;;;;3.33;1.80;;;;;;;;;;2610987;54;20448;-75
2023/10/21 07:47:47;;;;;;;4.33;1.80;;;;;;;;;;2611231;47;20400;-75
2023/10/21 07:50:13;;;;;;;3.70;1.90;;;;;;;;;;2611181;54;21003;-75
2023/10/21 07:52:39;;;;;;;7.70;1.80;;;;;;;;;;2611745;54;20422;-75
2023/10/21 07:55:06;;;;;;;2.93;1.60;;;;;;;;;;2611046;54;20402;-75
2023/10/21 07:57:32;;;;;;;3.90;1.50;;;;;;;;;;2610079;47;20431;-75
2023/10/21 08:00:03;;;;;;;3.00;1.60;;;;;;;;;;2611730;54;20418;-75
2023/10/21 08:02:30;;;;;;;3.93;1.17;;;;;;;;;;2611161;54;20400;-74
2023/10/21 08:04:56;;;;;;;3.40;1.17;;;;;;;;;;2611566;54;20412;-76
2023/10/21 08:07:22;;;;;;;3.13;1.10;;;;;;;;;;2611754;54;21298;-75
2023/10/21 08:09:48;;;;;;;2.87;1.87;;;;;;;;;;2612039;54;20442;-75
2023/10/21 08:12:14;;;;;;;2.73;1.00;;;;;;;;;;2611544;54;20535;-75
2023/10/21 08:14:40;;;;;;;3.73;1.17;;;;;;;;;;2611348;54;20388;-75
2023/10/21 08:17:08;;;;;;;2.53;1.20;;;;;;;;;;2610975;54;20442;-76
2023/10/21 08:19:34;;;;;;;1.97;1.00;;;;;;;;;;2611602;54;20430;-73
2023/10/21 08:22:03;;;;;;;4.27;2.00;;;;;;;;;;2611583;54;20387;-75
2023/10/21 08:24:31;;;;;;;3.97;1.90;;;;;;;;;;2611571;54;20430;-75
2023/10/21 08:26:57;;;;;;;1.97;0.80;;;;;;;;;;2612223;54;20412;-76
2023/10/21 08:29:23;;;;;;;2.07;1.00;;;;;;;;;;2611470;54;20411;-76
2023/10/21 08:31:50;;;;;;;4.63;1.27;;;;;;;;;;2611831;54;20415;-77
2023/10/21 08:34:16;;;;;;;2.70;1.40;;;;;;;;;;2612289;54;20435;-77
2023/10/21 08:36:42;;;;;;;3.40;1.20;;;;;;;;;;2611482;54;20462;-78
2023/10/21 08:39:09;;;;;;;1.83;1.00;;;;;;;;;;2612264;54;20383;-77
2023/10/21 08:41:37;;;;;;;2.10;0.93;;;;;;;;;;2612001;54;20392;-75
2023/10/21 08:44:05;;;;;;;2.37;1.03;;;;;;;;;;2611974;47;20407;-76
2023/10/21 08:46:37;;;;;;;1.90;0.93;;;;;;;;;;2612074;51;20590;-76
2023/10/21 08:49:04;;;;;;;2.10;0.93;;;;;;;;;;2612816;47;20424;-76
2023/10/21 08:51:30;;;;;;;2.40;1.20;;;;;;;;;;2612855;54;20427;-77
2023/10/21 08:53:59;;;;;;;2.43;1.13;;;;;;;;;;2613046;54;20407;-77
2023/10/21 08:56:27;;;;;;;2.40;1.40;;;;;;;;;;2613229;54;20467;-78
2023/10/21 08:58:55;;;;;;;2.17;1.30;;;;;;;;;;2612214;50;20434;-79
2023/10/21 09:01:23;;;;;;;2.00;1.20;;;;;;;;;;2612477;54;20423;-78
2023/10/21 09:03:49;;;;;;;2.13;1.00;;;;;;;;;;2611744;54;20442;-77
2023/10/21 09:06:17;;;;;;;3.00;1.20;;;;;;;;;;2612986;54;20420;-78
2023/10/21 09:08:44;;;;;;;1.97;1.40;;;;;;;;;;2612881;49;20961;-78
2023/10/21 09:11:11;;;;;;;2.30;1.00;;;;;;;;;;2613381;54;20407;-78
2023/10/21 09:13:41;;;;;;;1.77;0.93;;;;;;;;;;2613047;54;20434;-77
2023/10/21 09:16:19;;;;;;;1.67;0.80;;;;;;;;;;2613598;54;20542;-77
2023/10/21 09:19:05;;;;;;;2.30;1.20;;;;;;;;;;2614314;54;20518;-77
2023/10/21 09:21:32;;;;;;;2.80;1.17;;;;;;;;;;2614242;54;20417;-78
2023/10/21 09:24:04;;;;;;;1.60;0.70;;;;;;;;;;2614559;54;20403;-77
2023/10/21 09:26:35;;;;;;;2.40;1.30;;;;;;;;;;2613937;54;20432;-77
2023/10/21 09:29:11;;;;;;;1.60;0.90;;;;;;;;;;2614084;54;20516;-77
2023/10/21 09:31:41;;;;;;;5.43;0.93;;;;;;;;;;2614498;54;20395;-77
2023/10/21 09:34:07;;;;;;;2.47;0.93;;;;;;;;;;2615710;54;20424;-77
2023/10/21 09:36:40;;;;;;;4.67;1.87;;;;;;;;;;2613494;54;20465;-75
2023/10/21 09:39:08;;;;;;;1.90;1.20;;;;;;;;;;2612640;54;20411;-77
2023/10/21 09:41:34;;;;;;;2.20;1.20;;;;;;;;;;2612050;54;20420;-74
2023/10/21 09:44:05;;;;;;;1.93;1.30;;;;;;;;;;2612229;54;20379;-75
2023/10/21 09:46:31;;;;;;;1.87;0.80;;;;;;;;;;2611745;54;20392;-76
2023/10/21 09:49:03;;;;;;;2.83;0.87;;;;;;;;;;2612152;54;20499;-77
2023/10/21 09:51:33;;;;;;;1.40;0.60;;;;;;;;;;2612350;54;20487;-74
2023/10/21 09:54:01;;;;;;;2.63;1.00;;;;;;;;;;2612368;54;20396;-75
2023/10/21 09:56:29;;;;;;;2.50;0.93;;;;;;;;;;2611894;39;20801;-76
2023/10/21 09:58:55;;;;;;;4.40;1.10;;;;;;;;;;2612812;54;20441;-75
2023/10/21 10:01:24;;;;;;;1.97;0.87;;;;;;;;;;2610930;54;20430;-75
2023/10/21 10:03:55;;;;;;;2.23;1.00;;;;;;;;;;2612091;54;20516;-74
2023/10/21 10:06:22;;;;;;;5.43;1.20;;;;;;;;;;2612572;54;20456;-76
2023/10/21 10:08:48;;;;;;;1.97;1.00;;;;;;;;;;2612300;54;20438;-74
2023/10/21 10:11:16;;;;;;;2.33;1.00;;;;;;;;;;2612439;46;20439;-75
2023/10/21 10:13:46;;;;;;;1.40;1.00;;;;;;;;;;2612156;39;20810;-77
2023/10/21 10:16:19;;;;;;;2.40;1.30;;;;;;;;;;2611632;54;20420;-74
2023/10/21 10:18:50;;;;;;;2.10;1.10;;;;;;;;;;2612426;54;22268;-77
2023/10/21 10:21:16;;;;;;;1.43;1.07;;;;;;;;;;2612000;46;20438;-74
2023/10/21 10:23:58;;;;;;;1.83;1.20;;;;;;;;;;2612808;39;20494;-75
2023/10/21 10:26:36;;;;;;;3.00;1.30;;;;;;;;;;2612135;54;20455;-74
2023/10/21 10:29:25;;;;;;;1.97;1.40;;;;;;;;;;2611863;54;20407;-75
2023/10/21 10:32:11;;;;;;;1.90;1.60;;;;;;;;;;2612188;54;20403;-75
2023/10/21 10:34:49;;;;;;;1.70;1.53;;;;;;;;;;2611677;54;20409;-76
2023/10/21 10:37:26;;;;;;;2.33;1.87;;;;;;;;;;2612074;54;20542;-75
2023/10/21 10:39:54;;;;;;;1.90;1.60;;;;;;;;;;2611814;47;20435;-74
2023/10/21 10:42:20;;;;;;;2.20;1.93;;;;;;;;;;2612351;54;20413;-76
2023/10/21 10:44:46;;;;;;;1.77;1.67;;;;;;;;;;2612219;54;20988;-76
2023/10/21 10:47:13;;;;;;;3.23;2.30;;;;;;;;;;2611768;54;20431;-77
2023/10/21 10:49:57;;;;;;;2.43;1.80;;;;;;;;;;2611528;54;20404;-77
2023/10/21 10:52:28;;;;;;;2.47;2.27;;;;;;;;;;2611625;47;20423;-77
2023/10/21 10:54:54;;;;;;;2.13;1.93;;;;;;;;;;2611599;47;20404;-78
2023/10/21 10:57:22;;;;;;;2.13;2.03;;;;;;;;;;2612452;54;20976;-76
2023/10/21 10:59:50;;;;;;;2.80;2.60;;;;;;;;;;2611341;54;20518;-76
2023/10/21 11:02:16;;;;;;;2.90;2.70;;;;;;;;;;2610300;47;20420;-78
2023/10/21 11:04:44;;;;;;;3.13;2.93;;;;;;;;;;2612383;54;20431;-76
2023/10/21 11:07:11;;;;;;;3.20;3.00;;;;;;;;;;2611162;54;20570;-76
2023/10/21 11:09:38;;;;;;;3.20;3.00;;;;;;;;;;2612301;54;21096;-77
2023/10/21 11:12:04;;;;;;;3.83;3.30;;;;;;;;;;2612164;54;20988;-77
2023/10/21 11:14:30;;;;;;;3.30;3.10;;;;;;;;;;2611553;54;20473;-76
2023/10/21 11:16:57;;;;;;;3.30;3.00;;;;;;;;;;2611262;47;20419;-78
2023/10/21 11:19:26;;;;;;;3.50;3.30;;;;;;;;;;2612524;54;20407;-77
2023/10/21 11:21:52;;;;;;;3.97;3.37;;;;;;;;;;2611637;47;20433;-77
2023/10/21 11:24:22;;;;;;;3.40;3.20;;;;;;;;;;2611732;47;20536;-77
2023/10/21 11:26:49;;;;;;;4.60;3.60;;;;;;;;;;2611031;47;20561;-76
2023/10/21 11:29:17;;;;;;;3.30;3.10;;;;;;;;;;2612173;54;20434;-77
2023/10/21 11:31:44;;;;;;;3.77;3.47;;;;;;;;;;2611337;54;20426;-77
2023/10/21 11:34:13;;;;;;;4.23;3.90;;;;;;;;;;2611902;54;20436;-77
2023/10/21 11:36:39;;;;;;;3.70;3.50;;;;;;;;;;2612176;54;20582;-75
2023/10/21 11:39:13;;;;;;;4.00;3.80;;;;;;;;;;2611664;54;20537;-75
2023/10/21 11:41:50;;;;;;;4.30;4.10;;;;;;;;;;2611097;54;20431;-78
2023/10/21 11:44:17;;;;;;;4.40;4.10;;;;;;;;;;2609456;54;20432;-76
2023/10/21 11:46:43;;;;;;;4.33;4.13;;;;;;;;;;2609703;54;20433;-76
2023/10/21 11:49:13;;;;;;;4.53;4.23;;;;;;;;;;2609758;54;20428;-77
2023/10/21 11:51:43;;;;;;;4.77;4.43;;;;;;;;;;2610447;54;20423;-75
2023/10/21 11:54:19;;;;;;;4.70;4.30;;;;;;;;;;2610050;54;20403;-75
2023/10/21 11:57:01;;;;;;;4.60;4.30;;;;;;;;;;2609691;54;20421;-76
2023/10/21 12:16:28;;;;;;;4.80;4.50;;;;;;;;;;2608677;54;20430;-76
2023/10/21 12:22:12;;;;;;;5.20;4.70;;;;;;;;;;2609370;54;20429;-74
2023/10/21 12:37:40;;;;;;;5.27;4.97;;;;;;;;;;2609505;54;20505;-74
2023/10/21 12:45:48;;;;;;;5.17;4.77;;;;;;;;;;2608108;54;21011;-79
2023/10/21 12:48:17;;;;;;;5.00;4.60;;;;;;;;;;2608718;39;20848;-76
2023/10/21 12:50:43;;;;;;;7.53;4.80;;;;;;;;;;2609370;54;20472;-75
2023/10/21 12:53:10;;;;;;;5.00;4.80;;;;;;;;;;2609231;54;20439;-74
2023/10/21 12:55:39;;;;;;;5.80;4.40;;;;;;;;;;2609315;54;20950;-75
2023/10/21 12:58:06;;;;;;;5.63;5.13;;;;;;;;;;2609793;54;20436;-75
2023/10/21 13:00:32;;;;;;;5.00;4.70;;;;;;;;;;2608744;54;20408;-76
2023/10/21 13:02:58;;;;;;;5.13;4.73;;;;;;;;;;2608525;54;21022;-74
2023/10/21 13:05:24;;;;;;;5.03;4.63;;;;;;;;;;2610114;54;20434;-75
2023/10/21 13:07:50;;;;;;;5.07;4.77;;;;;;;;;;2610876;54;20497;-77
2023/10/21 13:10:17;;;;;;;7.50;4.83;;;;;;;;;;2614664;54;20438;-76
2023/10/21 13:12:43;;;;;;;5.60;5.20;;;;;;;;;;2615272;46;20450;-75
2023/10/21 13:15:13;;;;;;;6.50;4.73;;;;;;;;;;2615651;54;20969;-76
2023/10/21 13:17:39;;;;;;;5.10;4.80;;;;;;;;;;2615799;54;20423;-76
2023/10/21 13:20:16;;;;;;;7.23;6.30;;;;;;;;;;2615323;54;20474;-75
2023/10/21 13:22:42;;;;;;;4.83;4.43;;;;;;;;;;2615294;54;20406;-76
2023/10/21 13:25:09;;;;;;;5.93;5.53;;;;;;;;;;2614685;54;20432;-77
2023/10/21 13:27:36;;;;;;;5.37;4.97;;;;;;;;;;2615762;54;20526;-76
2023/10/21 13:30:10;;;;;;;5.50;5.00;;;;;;;;;;2616672;54;20430;-77
2023/10/21 13:32:37;;;;;;;5.30;4.90;;;;;;;;;;2616494;39;20869;-77
2023/10/21 13:35:10;;;;;;;6.53;5.57;;;;;;;;;;2614980;39;20738;-76
2023/10/21 13:37:40;;;;;;;5.03;4.70;;;;;;;;;;2613318;54;20841;-76
2023/10/21 13:40:17;;;;;;;6.67;5.50;;;;;;;;;;2613989;39;20923;-77
2023/10/21 13:42:45;;;;;;;6.00;5.47;;;;;;;;;;2613407;54;20427;-77
2023/10/21 13:45:31;;;;;;;5.80;4.73;;;;;;;;;;2612860;47;20434;-76
2023/10/21 13:47:57;;;;;;;6.20;5.60;;;;;;;;;;2613732;54;20439;-75
2023/10/21 13:50:26;;;;;;;5.83;5.43;;;;;;;;;;2614382;54;20424;-76
2023/10/21 13:52:52;;;;;;;7.07;6.00;;;;;;;;;;2613966;54;20515;-76
2023/10/21 13:55:20;;;;;;;5.97;5.03;;;;;;;;;;2613220;46;20435;-76
2023/10/21 13:57:46;;;;;;;5.77;5.23;;;;;;;;;;2614942;54;20431;-76
2023/10/21 14:00:33;;;;;;;6.00;5.40;;;;;;;;;;2613727;54;20457;-76
2023/10/21 14:03:09;;;;;;;10.27;5.30;;;;;;;;;;2613596;39;21090;-76
2023/10/21 14:05:45;;;;;;;5.93;5.40;;;;;;;;;;2613815;47;20416;-76
2023/10/21 14:08:14;;;;;;;5.17;4.70;;;;;;;;;;2613450;46;20423;-75
2023/10/21 14:10:44;;;;;;;6.17;5.67;;;;;;;;;;2613288;54;20415;-75
2023/10/21 14:13:19;;;;;;;6.47;5.97;;;;;;;;;;2613868;54;20430;-75
2023/10/21 14:15:48;;;;;;;6.30;5.70;;;;;;;;;;2613640;54;20401;-76
2023/10/21 14:18:14;;;;;;;5.90;5.50;;;;;;;;;;2613528;31;20895;-74
2023/10/21 14:20:40;;;;;;;5.47;5.03;;;;;;;;;;2612960;54;20408;-74
2023/10/21 14:23:09;;;;;;;6.03;5.43;;;;;;;;;;2612354;54;20462;-73
2023/10/21 14:25:38;;;;;;;5.87;5.47;;;;;;;;;;2613500;39;20786;-74
2023/10/21 14:28:10;;;;;;;5.60;5.20;;;;;;;;;;2613768;54;20440;-74
2023/10/21 14:30:46;;;;;;;6.43;5.83;;;;;;;;;;2614018;54;20459;-73
2023/10/21 14:33:18;;;;;;;5.93;5.40;;;;;;;;;;2614603;54;20446;-74
2023/10/21 14:35:44;;;;;;;9.60;6.30;;;;;;;;;;2612871;46;20419;-75
2023/10/21 14:38:14;;;;;;;9.30;6.00;;;;;;;;;;2612996;54;20452;-74
2023/10/21 14:40:41;;;;;;;7.30;6.60;;;;;;;;;;2612684;54;21029;-75
2023/10/21 14:43:11;;;;;;;5.90;5.43;;;;;;;;;;2613318;54;20420;-75
2023/10/21 14:45:37;;;;;;;6.50;6.00;;;;;;;;;;2612166;46;20867;-74
2023/10/21 14:48:04;;;;;;;6.10;5.70;;;;;;;;;;2612614;54;20949;-73
2023/10/21 14:50:32;;;;;;;7.17;5.80;;;;;;;;;;2612768;54;20419;-73
2023/10/21 14:52:58;;;;;;;6.83;6.23;;;;;;;;;;2611878;47;20954;-79
2023/10/21 14:55:24;;;;;;;10.20;6.30;;;;;;;;;;2611857;47;20435;-74
2023/10/21 14:57:50;;;;;;;8.93;6.17;;;;;;;;;;2611796;47;21049;-73
2023/10/21 15:00:21;;;;;;;6.00;5.50;;;;;;;;;;2611783;46;21283;-75
2023/10/21 15:02:47;;;;;;;7.23;6.53;;;;;;;;;;2612206;54;20408;-73
2023/10/21 15:05:13;;;;;;;17.30;7.40;;;;;;;;;;2611395;51;20429;-73
2023/10/21 15:07:40;;;;;;;5.63;5.33;;;;;;;;;;2612648;54;20430;-73
2023/10/21 15:10:10;;;;;;;5.80;5.30;;;;;;;;;;2612738;54;20435;-73
2023/10/21 15:12:39;;;;;;;6.40;5.87;;;;;;;;;;2612276;54;20905;-74
2023/10/21 15:15:10;;;;;;;6.30;6.00;;;;;;;;;;2609472;54;20411;-73
2023/10/21 15:17:37;;;;;;;9.00;7.23;;;;;;;;;;2611105;54;20396;-73
2023/10/21 15:20:04;;;;;;;6.57;6.07;;;;;;;;;;2612280;54;20415;-73
2023/10/21 15:22:30;;;;;;;6.40;6.00;;;;;;;;;;2611616;47;20412;-74
2023/10/21 15:24:56;;;;;;;6.67;6.07;;;;;;;;;;2611349;46;20434;-73